sensor_id;sensor_type;location;lat;lon;timestamp;pressure;altitude;pressure_sealevel;temperature;humidity
83183;BME280;73077;49.898;16.450;2023-10-19T00:01:57;96270.25;;;20.20;48.76
83183;BME280;73077;49.898;16.450;2023-10-19T00:04:24;96264.28;;;20.26;48.60
83183;BME280;73077;49.898;16.450;2023-10-19T00:06:52;96257.53;;;20.17;48.49
83183;BME280;73077;49.898;16.450;2023-10-19T00:09:21;96258.34;;;20.17;48.64
83183;BME280;73077;49.898;16.450;2023-10-19T00:11:47;96255.06;;;20.15;48.57
83183;BME280;73077;49.898;16.450;2023-10-19T00:14:16;96253.09;;;20.24;48.25
83183;BME280;73077;49.898;16.450;2023-10-19T00:16:46;96245.81;;;20.19;48.16
83183;BME280;73077;49.898;16.450;2023-10-19T00:19:26;96255.38;;;20.27;48.60
83183;BME280;73077;49.898;16.450;2023-10-19T00:21:54;96239.72;;;20.12;48.63
83183;BME280;73077;49.898;16.450;2023-10-19T00:24:35;96237.91;;;20.06;48.61
83183;BME280;73077;49.898;16.450;2023-10-19T00:27:01;96231.03;;;20.05;48.72
83183;BME280;73077;49.898;16.450;2023-10-19T00:29:42;96218.06;;;20.04;48.43
83183;BME280;73077;49.898;16.450;2023-10-19T00:32:15;96215.31;;;20.12;48.51
83183;BME280;73077;49.898;16.450;2023-10-19T00:34:43;96207.97;;;20.00;48.46
83183;BME280;73077;49.898;16.450;2023-10-19T00:37:16;96194.25;;;19.98;48.64
83183;BME280;73077;49.898;16.450;2023-10-19T00:39:46;96189.59;;;20.00;48.36
83183;BME280;73077;49.898;16.450;2023-10-19T00:42:23;96181.88;;;19.92;48.42
83183;BME280;73077;49.898;16.450;2023-10-19T00:44:56;96185.94;;;19.95;48.59
83183;BME280;73077;49.898;16.450;2023-10-19T00:47:30;96180.09;;;19.93;48.66
83183;BME280;73077;49.898;16.450;2023-10-19T00:50:08;96173.22;;;19.92;48.31
83183;BME280;73077;49.898;16.450;2023-10-19T00:52:43;96183.56;;;20.00;48.47
83183;BME280;73077;49.898;16.450;2023-10-19T00:55:15;96176.69;;;19.99;48.64
83183;BME280;73077;49.898;16.450;2023-10-19T00:57:45;96174.66;;;20.01;48.31
83183;BME280;73077;49.898;16.450;2023-10-19T01:00:14;96179.09;;;20.00;48.64
83183;BME280;73077;49.898;16.450;2023-10-19T01:03:00;96171.00;;;19.95;48.53
83183;BME280;73077;49.898;16.450;2023-10-19T01:05:26;96166.75;;;19.88;48.79
83183;BME280;73077;49.898;16.450;2023-10-19T01:08:02;96167.19;;;19.91;48.66
83183;BME280;73077;49.898;16.450;2023-10-19T01:10:39;96158.34;;;20.06;48.52
83183;BME280;73077;49.898;16.450;2023-10-19T01:13:05;96146.19;;;19.91;48.74
83183;BME280;73077;49.898;16.450;2023-10-19T01:15:32;96149.22;;;19.95;48.58
83183;BME280;73077;49.898;16.450;2023-10-19T01:18:03;96149.03;;;19.96;48.58
83183;BME280;73077;49.898;16.450;2023-10-19T01:20:31;96142.56;;;19.99;48.51
83183;BME280;73077;49.898;16.450;2023-10-19T01:23:18;96128.59;;;19.92;48.46
83183;BME280;73077;49.898;16.450;2023-10-19T01:25:54;96121.19;;;20.02;48.42
83183;BME280;73077;49.898;16.450;2023-10-19T01:28:20;96121.34;;;19.87;48.54
83183;BME280;73077;49.898;16.450;2023-10-19T01:30:51;96127.19;;;19.83;48.85
83183;BME280;73077;49.898;16.450;2023-10-19T01:33:18;96114.25;;;19.81;48.74
83183;BME280;73077;49.898;16.450;2023-10-19T01:35:44;96110.81;;;19.81;48.96
83183;BME280;73077;49.898;16.450;2023-10-19T01:38:30;96104.78;;;19.87;48.40
83183;BME280;73077;49.898;16.450;2023-10-19T01:41:01;96107.88;;;19.97;48.33
83183;BME280;73077;49.898;16.450;2023-10-19T01:43:29;96105.78;;;19.79;48.39
83183;BME280;73077;49.898;16.450;2023-10-19T01:46:02;96084.44;;;19.89;48.22
83183;BME280;73077;49.898;16.450;2023-10-19T01:48:42;96075.06;;;19.73;48.45
83183;BME280;73077;49.898;16.450;2023-10-19T01:51:12;96070.03;;;19.78;48.59
83183;BME280;73077;49.898;16.450;2023-10-19T01:53:40;96075.47;;;19.70;48.34
83183;BME280;73077;49.898;16.450;2023-10-19T01:56:11;96078.88;;;19.64;48.65
83183;BME280;73077;49.898;16.450;2023-10-19T01:58:41;96059.31;;;19.67;48.62
83183;BME280;73077;49.898;16.450;2023-10-19T02:01:13;96063.72;;;19.66;48.63
83183;BME280;73077;49.898;16.450;2023-10-19T02:03:53;96056.50;;;19.75;48.52
83183;BME280;73077;49.898;16.450;2023-10-19T02:06:22;96061.53;;;19.70;48.48
83183;BME280;73077;49.898;16.450;2023-10-19T02:09:04;96062.13;;;19.65;48.49
83183;BME280;73077;49.898;16.450;2023-10-19T02:11:51;96061.91;;;19.60;48.44
83183;BME280;73077;49.898;16.450;2023-10-19T02:14:27;96064.53;;;19.60;48.60
83183;BME280;73077;49.898;16.450;2023-10-19T02:16:58;96052.03;;;19.62;48.49
83183;BME280;73077;49.898;16.450;2023-10-19T02:19:32;96047.22;;;19.66;48.44
83183;BME280;73077;49.898;16.450;2023-10-19T02:22:02;96037.91;;;19.57;48.76
83183;BME280;73077;49.898;16.450;2023-10-19T02:24:39;96030.00;;;19.50;48.75
83183;BME280;73077;49.898;16.450;2023-10-19T02:27:04;96024.56;;;19.58;48.33
83183;BME280;73077;49.898;16.450;2023-10-19T02:29:33;96018.13;;;19.54;48.59
83183;BME280;73077;49.898;16.450;2023-10-19T02:32:03;96022.59;;;19.60;48.43
83183;BME280;73077;49.898;16.450;2023-10-19T02:34:31;96016.66;;;19.45;48.74
83183;BME280;73077;49.898;16.450;2023-10-19T02:36:57;96010.66;;;19.51;48.68
83183;BME280;73077;49.898;16.450;2023-10-19T02:39:24;96007.81;;;19.46;48.58
83183;BME280;73077;49.898;16.450;2023-10-19T02:41:54;96008.22;;;19.50;48.69
83183;BME280;73077;49.898;16.450;2023-10-19T02:44:22;96000.34;;;19.50;48.50
83183;BME280;73077;49.898;16.450;2023-10-19T02:46:54;95991.91;;;19.54;48.50
83183;BME280;73077;49.898;16.450;2023-10-19T02:49:34;95988.44;;;19.47;48.55
83183;BME280;73077;49.898;16.450;2023-10-19T02:52:09;95985.22;;;19.45;48.69
83183;BME280;73077;49.898;16.450;2023-10-19T02:54:39;95988.66;;;19.52;48.61
83183;BME280;73077;49.898;16.450;2023-10-19T02:57:06;95982.78;;;19.43;48.48
83183;BME280;73077;49.898;16.450;2023-10-19T02:59:35;95973.84;;;19.38;48.54
83183;BME280;73077;49.898;16.450;2023-10-19T03:02:02;95964.03;;;19.40;48.59
83183;BME280;73077;49.898;16.450;2023-10-19T03:04:36;95968.25;;;19.41;48.33
83183;BME280;73077;49.898;16.450;2023-10-19T03:07:05;95974.69;;;19.38;48.59
83183;BME280;73077;49.898;16.450;2023-10-19T03:09:31;95969.88;;;19.42;48.53
83183;BME280;73077;49.898;16.450;2023-10-19T03:12:02;95974.88;;;19.37;48.47
83183;BME280;73077;49.898;16.450;2023-10-19T03:14:31;95975.06;;;19.35;48.55
83183;BME280;73077;49.898;16.450;2023-10-19T03:16:57;95970.03;;;19.34;48.67
83183;BME280;73077;49.898;16.450;2023-10-19T03:19:24;95971.44;;;19.36;48.84
83183;BME280;73077;49.898;16.450;2023-10-19T03:21:53;95965.44;;;19.42;48.75
83183;BME280;73077;49.898;16.450;2023-10-19T03:24:21;95971.50;;;19.43;48.69
83183;BME280;73077;49.898;16.450;2023-10-19T03:27:14;95986.94;;;19.38;48.86
83183;BME280;73077;49.898;16.450;2023-10-19T03:29:50;95981.59;;;19.46;48.55
83183;BME280;73077;49.898;16.450;2023-10-19T03:32:24;95982.38;;;19.40;48.68
83183;BME280;73077;49.898;16.450;2023-10-19T03:34:58;95980.19;;;19.50;48.58
83183;BME280;73077;49.898;16.450;2023-10-19T03:37:27;95992.25;;;19.45;48.90
83183;BME280;73077;49.898;16.450;2023-10-19T03:39:56;95998.50;;;19.43;48.62
83183;BME280;73077;49.898;16.450;2023-10-19T03:42:22;95992.41;;;19.36;48.85
83183;BME280;73077;49.898;16.450;2023-10-19T03:44:51;95999.31;;;19.44;49.01
83183;BME280;73077;49.898;16.450;2023-10-19T03:47:20;95997.59;;;19.30;49.20
83183;BME280;73077;49.898;16.450;2023-10-19T03:49:47;96003.06;;;19.28;49.01
83183;BME280;73077;49.898;16.450;2023-10-19T03:52:13;95993.59;;;19.34;49.11
83183;BME280;73077;49.898;16.450;2023-10-19T03:54:39;95999.09;;;19.39;48.87
83183;BME280;73077;49.898;16.450;2023-10-19T03:57:06;95989.44;;;19.39;49.18
83183;BME280;73077;49.898;16.450;2023-10-19T03:59:40;95976.75;;;19.43;49.06
83183;BME280;73077;49.898;16.450;2023-10-19T04:02:06;95974.66;;;19.32;49.25
83183;BME280;73077;49.898;16.450;2023-10-19T04:04:52;95971.06;;;19.39;49.12
83183;BME280;73077;49.898;16.450;2023-10-19T04:07:20;95966.50;;;19.61;48.47
83183;BME280;73077;49.898;16.450;2023-10-19T04:09:56;95967.00;;;19.91;48.03
83183;BME280;73077;49.898;16.450;2023-10-19T04:12:38;95963.22;;;20.39;46.85
83183;BME280;73077;49.898;16.450;2023-10-19T04:15:08;95970.44;;;20.96;45.58
83183;BME280;73077;49.898;16.450;2023-10-19T04:17:44;95957.72;;;21.57;44.03
83183;BME280;73077;49.898;16.450;2023-10-19T04:20:14;95948.50;;;22.11;43.04
83183;BME280;73077;49.898;16.450;2023-10-19T04:22:43;95943.34;;;22.47;42.33
83183;BME280;73077;49.898;16.450;2023-10-19T04:25:09;95919.03;;;22.70;41.87
83183;BME280;73077;49.898;16.450;2023-10-19T04:27:45;95920.53;;;22.84;42.12
83183;BME280;73077;49.898;16.450;2023-10-19T04:30:12;95901.13;;;22.97;41.80
83183;BME280;73077;49.898;16.450;2023-10-19T04:32:42;95893.44;;;23.13;41.60
83183;BME280;73077;49.898;16.450;2023-10-19T04:35:08;95898.91;;;23.30;41.44
83183;BME280;73077;49.898;16.450;2023-10-19T04:37:38;95910.28;;;23.49;41.18
83183;BME280;73077;49.898;16.450;2023-10-19T04:40:11;95906.28;;;23.58;41.01
83183;BME280;73077;49.898;16.450;2023-10-19T04:42:40;95913.16;;;23.59;41.41
83183;BME280;73077;49.898;16.450;2023-10-19T04:45:06;95901.34;;;23.61;41.32
83183;BME280;73077;49.898;16.450;2023-10-19T04:47:39;95897.75;;;23.74;41.15
83183;BME280;73077;49.898;16.450;2023-10-19T04:50:06;95880.84;;;23.75;41.33
83183;BME280;73077;49.898;16.450;2023-10-19T04:52:36;95872.59;;;23.71;41.51
83183;BME280;73077;49.898;16.450;2023-10-19T04:55:02;95868.88;;;23.61;41.70
83183;BME280;73077;49.898;16.450;2023-10-19T04:57:28;95874.47;;;23.53;42.08
83183;BME280;73077;49.898;16.450;2023-10-19T05:00:12;95875.00;;;23.43;42.17
83183;BME280;73077;49.898;16.450;2023-10-19T05:02:43;95867.69;;;23.27;43.34
83183;BME280;73077;49.898;16.450;2023-10-19T05:05:14;95854.16;;;23.23;43.33
83183;BME280;73077;49.898;16.450;2023-10-19T05:07:42;95867.00;;;23.20;43.51
83183;BME280;73077;49.898;16.450;2023-10-19T05:10:13;95844.97;;;23.14;43.39
83183;BME280;73077;49.898;16.450;2023-10-19T05:12:40;95841.13;;;23.10;43.39
83183;BME280;73077;49.898;16.450;2023-10-19T05:15:08;95838.56;;;23.04;43.49
83183;BME280;73077;49.898;16.450;2023-10-19T05:17:36;95829.72;;;22.98;43.55
83183;BME280;73077;49.898;16.450;2023-10-19T05:20:04;95826.16;;;22.93;43.70
83183;BME280;73077;49.898;16.450;2023-10-19T05:22:39;95855.22;;;22.86;43.65
83183;BME280;73077;49.898;16.450;2023-10-19T05:25:17;95863.41;;;22.78;43.77
83183;BME280;73077;49.898;16.450;2023-10-19T05:27:45;95849.28;;;22.72;44.08
83183;BME280;73077;49.898;16.450;2023-10-19T05:30:17;95844.13;;;22.66;43.88
83183;BME280;73077;49.898;16.450;2023-10-19T05:32:46;95830.97;;;22.59;43.97
83183;BME280;73077;49.898;16.450;2023-10-19T05:35:21;95823.72;;;22.55;44.26
83183;BME280;73077;49.898;16.450;2023-10-19T05:37:57;95800.31;;;22.47;44.06
83183;BME280;73077;49.898;16.450;2023-10-19T05:40:31;95789.03;;;22.40;44.27
83183;BME280;73077;49.898;16.450;2023-10-19T05:42:59;95785.22;;;22.36;44.33
83183;BME280;73077;49.898;16.450;2023-10-19T05:45:27;95797.44;;;22.30;44.23
83183;BME280;73077;49.898;16.450;2023-10-19T05:47:56;95815.50;;;22.27;44.53
83183;BME280;73077;49.898;16.450;2023-10-19T05:50:25;95827.13;;;22.19;44.39
83183;BME280;73077;49.898;16.450;2023-10-19T05:52:51;95821.91;;;22.12;44.49
83183;BME280;73077;49.898;16.450;2023-10-19T05:55:17;95808.38;;;22.09;44.38
83183;BME280;73077;49.898;16.450;2023-10-19T05:57:44;95821.19;;;22.05;44.56
83183;BME280;73077;49.898;16.450;2023-10-19T06:00:13;95815.31;;;22.03;44.38
83183;BME280;73077;49.898;16.450;2023-10-19T06:02:42;95811.50;;;21.99;44.59
83183;BME280;73077;49.898;16.450;2023-10-19T06:05:09;95816.25;;;21.91;44.43
83183;BME280;73077;49.898;16.450;2023-10-19T06:07:35;95807.13;;;21.93;44.47
83183;BME280;73077;49.898;16.450;2023-10-19T06:10:03;95818.66;;;21.92;44.71
83183;BME280;73077;49.898;16.450;2023-10-19T06:12:31;95813.38;;;21.92;44.67
83183;BME280;73077;49.898;16.450;2023-10-19T06:15:04;95821.53;;;21.84;44.48
83183;BME280;73077;49.898;16.450;2023-10-19T06:17:31;95829.84;;;21.81;44.72
83183;BME280;73077;49.898;16.450;2023-10-19T06:19:58;95829.03;;;21.81;44.48
83183;BME280;73077;49.898;16.450;2023-10-19T06:22:42;95832.31;;;21.76;44.59
83183;BME280;73077;49.898;16.450;2023-10-19T06:25:59;95826.38;;;21.87;44.71
83183;BME280;73077;49.898;16.450;2023-10-19T06:28:37;95821.63;;;22.02;44.20
83183;BME280;73077;49.898;16.450;2023-10-19T06:31:39;95833.78;;;22.21;43.95
83183;BME280;73077;49.898;16.450;2023-10-19T06:34:11;95836.44;;;22.40;43.71
83183;BME280;73077;49.898;16.450;2023-10-19T06:36:37;95844.16;;;22.59;43.21
83183;BME280;73077;49.898;16.450;2023-10-19T06:39:04;95822.31;;;22.77;43.04
83183;BME280;73077;49.898;16.450;2023-10-19T06:41:32;95820.66;;;22.94;42.60
83183;BME280;73077;49.898;16.450;2023-10-19T06:43:58;95830.81;;;23.09;42.15
83183;BME280;73077;49.898;16.450;2023-10-19T06:46:26;95817.22;;;23.23;41.81
83183;BME280;73077;49.898;16.450;2023-10-19T06:48:52;95818.41;;;23.27;41.89
83183;BME280;73077;49.898;16.450;2023-10-19T06:51:23;95821.84;;;23.28;42.24
83183;BME280;73077;49.898;16.450;2023-10-19T06:53:50;95817.81;;;23.25;42.44
83183;BME280;73077;49.898;16.450;2023-10-19T06:56:16;95814.25;;;23.20;42.47
83183;BME280;73077;49.898;16.450;2023-10-19T06:58:43;95824.63;;;23.15;42.42
83183;BME280;73077;49.898;16.450;2023-10-19T07:01:09;95818.78;;;23.13;42.81
83183;BME280;73077;49.898;16.450;2023-10-19T07:03:36;95817.03;;;23.07;42.70
83183;BME280;73077;49.898;16.450;2023-10-19T07:06:03;95823.00;;;23.02;42.89
83183;BME280;73077;49.898;16.450;2023-10-19T07:08:30;95812.09;;;22.99;42.91
83183;BME280;73077;49.898;16.450;2023-10-19T07:11:04;95806.88;;;22.92;42.99
83183;BME280;73077;49.898;16.450;2023-10-19T07:13:31;95807.56;;;22.88;43.20
83183;BME280;73077;49.898;16.450;2023-10-19T07:15:58;95816.13;;;22.83;43.07
83183;BME280;73077;49.898;16.450;2023-10-19T07:18:25;95810.13;;;22.76;43.28
83183;BME280;73077;49.898;16.450;2023-10-19T07:20:52;95809.41;;;22.69;43.41
83183;BME280;73077;49.898;16.450;2023-10-19T07:23:26;95814.91;;;22.67;43.61
83183;BME280;73077;49.898;16.450;2023-10-19T07:25:54;95804.19;;;22.62;43.64
83183;BME280;73077;49.898;16.450;2023-10-19T07:28:26;95801.06;;;22.54;43.81
83183;BME280;73077;49.898;16.450;2023-10-19T07:30:52;95799.06;;;22.49;43.55
83183;BME280;73077;49.898;16.450;2023-10-19T07:33:18;95794.47;;;22.45;43.62
83183;BME280;73077;49.898;16.450;2023-10-19T07:35:49;95794.09;;;22.41;43.77
83183;BME280;73077;49.898;16.450;2023-10-19T07:38:28;95794.16;;;22.35;43.98
83183;BME280;73077;49.898;16.450;2023-10-19T07:40:58;95790.34;;;22.31;44.08
83183;BME280;73077;49.898;16.450;2023-10-19T07:43:24;95772.78;;;22.24;44.04
83183;BME280;73077;49.898;16.450;2023-10-19T07:45:50;95775.66;;;22.23;43.86
83183;BME280;73077;49.898;16.450;2023-10-19T07:48:19;95776.88;;;22.20;44.01
83183;BME280;73077;49.898;16.450;2023-10-19T07:50:46;95779.16;;;22.17;44.11
83183;BME280;73077;49.898;16.450;2023-10-19T07:53:20;95782.75;;;22.22;43.92
83183;BME280;73077;49.898;16.450;2023-10-19T07:55:47;95771.69;;;22.32;43.72
83183;BME280;73077;49.898;16.450;2023-10-19T07:58:13;95769.56;;;22.41;43.82
83183;BME280;73077;49.898;16.450;2023-10-19T08:00:40;95784.19;;;22.55;43.38
83183;BME280;73077;49.898;16.450;2023-10-19T08:03:09;95774.38;;;22.68;43.29
83183;BME280;73077;49.898;16.450;2023-10-19T08:05:37;95775.38;;;22.86;42.89
83183;BME280;73077;49.898;16.450;2023-10-19T08:08:05;95772.63;;;22.92;42.70
83183;BME280;73077;49.898;16.450;2023-10-19T08:10:32;95776.88;;;22.93;42.77
83183;BME280;73077;49.898;16.450;2023-10-19T08:13:03;95772.06;;;22.90;42.72
83183;BME280;73077;49.898;16.450;2023-10-19T08:15:30;95769.66;;;22.89;43.00
83183;BME280;73077;49.898;16.450;2023-10-19T08:17:57;95767.91;;;22.83;43.11
83183;BME280;73077;49.898;16.450;2023-10-19T08:20:24;95766.16;;;22.76;43.11
83183;BME280;73077;49.898;16.450;2023-10-19T08:22:59;95762.13;;;22.74;43.14
83183;BME280;73077;49.898;16.450;2023-10-19T08:25:27;95748.78;;;22.69;43.24
83183;BME280;73077;49.898;16.450;2023-10-19T08:27:54;95760.00;;;22.64;43.39
83183;BME280;73077;49.898;16.450;2023-10-19T08:30:24;95751.72;;;22.61;43.27
83183;BME280;73077;49.898;16.450;2023-10-19T08:32:52;95746.88;;;22.58;43.53
83183;BME280;73077;49.898;16.450;2023-10-19T08:35:21;95745.72;;;22.54;43.53
83183;BME280;73077;49.898;16.450;2023-10-19T08:37:51;95735.25;;;22.47;43.59
83183;BME280;73077;49.898;16.450;2023-10-19T08:40:19;95725.97;;;22.45;43.77
83183;BME280;73077;49.898;16.450;2023-10-19T08:42:47;95730.06;;;22.41;43.67
83183;BME280;73077;49.898;16.450;2023-10-19T08:45:15;95724.66;;;22.36;43.88
83183;BME280;73077;49.898;16.450;2023-10-19T08:47:54;95733.56;;;22.35;44.01
83183;BME280;73077;49.898;16.450;2023-10-19T08:50:31;95731.41;;;22.32;43.69
83183;BME280;73077;49.898;16.450;2023-10-19T08:53:02;95735.69;;;22.26;43.92
83183;BME280;73077;49.898;16.450;2023-10-19T08:55:31;95739.56;;;22.23;43.84
83183;BME280;73077;49.898;16.450;2023-10-19T08:58:01;95736.38;;;22.21;43.99
83183;BME280;73077;49.898;16.450;2023-10-19T09:00:50;95743.69;;;22.19;43.97
83183;BME280;73077;49.898;16.450;2023-10-19T09:03:25;95746.09;;;22.21;43.91
83183;BME280;73077;49.898;16.450;2023-10-19T09:05:51;95739.88;;;22.15;44.12
83183;BME280;73077;49.898;16.450;2023-10-19T09:08:19;95747.63;;;22.10;44.17
83183;BME280;73077;49.898;16.450;2023-10-19T09:10:48;95745.72;;;22.17;43.91
83183;BME280;73077;49.898;16.450;2023-10-19T09:13:17;95736.50;;;22.27;43.79
83183;BME280;73077;49.898;16.450;2023-10-19T09:15:48;95739.59;;;22.42;43.39
83183;BME280;73077;49.898;16.450;2023-10-19T09:18:23;95746.44;;;22.61;43.35
83183;BME280;73077;49.898;16.450;2023-10-19T09:20:56;95754.81;;;22.76;43.04
83183;BME280;73077;49.898;16.450;2023-10-19T09:23:33;95749.00;;;22.86;42.82
83183;BME280;73077;49.898;16.450;2023-10-19T09:26:01;95731.72;;;22.90;42.89
83183;BME280;73077;49.898;16.450;2023-10-19T09:28:34;95723.00;;;22.89;42.73
83183;BME280;73077;49.898;16.450;2023-10-19T09:31:06;95724.03;;;22.88;42.74
83183;BME280;73077;49.898;16.450;2023-10-19T09:33:36;95714.97;;;22.84;42.80
83183;BME280;73077;49.898;16.450;2023-10-19T09:36:09;95712.78;;;22.81;43.09
83183;BME280;73077;49.898;16.450;2023-10-19T09:38:49;95705.53;;;22.76;42.97
83183;BME280;73077;49.898;16.450;2023-10-19T09:41:18;95704.59;;;22.71;43.17
83183;BME280;73077;49.898;16.450;2023-10-19T09:43:46;95698.16;;;22.67;43.36
83183;BME280;73077;49.898;16.450;2023-10-19T09:46:25;95694.16;;;22.64;43.39
83183;BME280;73077;49.898;16.450;2023-10-19T09:48:58;95691.78;;;22.56;43.54
83183;BME280;73077;49.898;16.450;2023-10-19T09:51:25;95688.00;;;22.52;43.66
83183;BME280;73077;49.898;16.450;2023-10-19T09:56:43;95679.00;;;22.42;43.87
83183;BME280;73077;49.898;16.450;2023-10-19T09:59:22;95679.47;;;22.39;43.55
83183;BME280;73077;49.898;16.450;2023-10-19T10:02:11;95674.63;;;22.36;43.86
83183;BME280;73077;49.898;16.450;2023-10-19T10:04:47;95680.34;;;22.33;44.01
83183;BME280;73077;49.898;16.450;2023-10-19T10:07:14;95675.50;;;22.30;44.04
83183;BME280;73077;49.898;16.450;2023-10-19T10:09:45;95665.41;;;22.27;43.93
83183;BME280;73077;49.898;16.450;2023-10-19T10:12:27;95665.84;;;22.23;43.91
83183;BME280;73077;49.898;16.450;2023-10-19T10:15:04;95661.03;;;22.20;44.10
83183;BME280;73077;49.898;16.450;2023-10-19T10:17:38;95663.09;;;22.18;44.02
83183;BME280;73077;49.898;16.450;2023-10-19T10:22:45;95672.00;;;22.17;44.22
83183;BME280;73077;49.898;16.450;2023-10-19T10:25:31;95677.75;;;22.14;44.04
83183;BME280;73077;49.898;16.450;2023-10-19T10:28:03;95678.00;;;22.24;43.99
83183;BME280;73077;49.898;16.450;2023-10-19T10:30:31;95672.94;;;22.41;43.81
83183;BME280;73077;49.898;16.450;2023-10-19T10:33:01;95668.91;;;22.57;43.43
83183;BME280;73077;49.898;16.450;2023-10-19T10:38:06;95654.91;;;22.86;42.71
83183;BME280;73077;49.898;16.450;2023-10-19T10:40:49;95641.44;;;22.94;42.71
83183;BME280;73077;49.898;16.450;2023-10-19T10:43:17;95643.03;;;22.95;42.81
83183;BME280;73077;49.898;16.450;2023-10-19T10:45:44;95630.09;;;22.94;42.73
83183;BME280;73077;49.898;16.450;2023-10-19T10:48:15;95625.47;;;22.89;42.74
83183;BME280;73077;49.898;16.450;2023-10-19T10:50:45;95620.66;;;22.86;42.82
83183;BME280;73077;49.898;16.450;2023-10-19T10:53:15;95614.81;;;22.84;42.98
83183;BME280;73077;49.898;16.450;2023-10-19T10:55:42;95607.00;;;22.77;43.16
83183;BME280;73077;49.898;16.450;2023-10-19T10:58:15;95605.06;;;22.73;43.35
83183;BME280;73077;49.898;16.450;2023-10-19T11:00:46;95598.41;;;22.70;43.27
83183;BME280;73077;49.898;16.450;2023-10-19T11:03:17;95592.22;;;22.65;43.47
83183;BME280;73077;49.898;16.450;2023-10-19T11:05:46;95584.72;;;22.62;43.47
83183;BME280;73077;49.898;16.450;2023-10-19T11:08:30;95577.97;;;22.54;43.62
83183;BME280;73077;49.898;16.450;2023-10-19T11:11:02;95568.66;;;22.52;43.48
83183;BME280;73077;49.898;16.450;2023-10-19T11:13:31;95559.38;;;22.49;43.55
83183;BME280;73077;49.898;16.450;2023-10-19T11:16:06;95561.66;;;22.46;43.63
83183;BME280;73077;49.898;16.450;2023-10-19T11:18:37;95562.34;;;22.41;43.78
83183;BME280;73077;49.898;16.450;2023-10-19T11:21:29;95552.25;;;22.38;43.79
83183;BME280;73077;49.898;16.450;2023-10-19T11:23:55;95552.94;;;22.34;43.98
83183;BME280;73077;49.898;16.450;2023-10-19T11:26:25;95544.66;;;22.30;44.08
83183;BME280;73077;49.898;16.450;2023-10-19T11:29:02;95538.03;;;22.28;44.23
83183;BME280;73077;49.898;16.450;2023-10-19T11:31:34;95542.28;;;22.29;43.94
83183;BME280;73077;49.898;16.450;2023-10-19T11:34:09;95546.38;;;22.24;44.16
83183;BME280;73077;49.898;16.450;2023-10-19T11:36:35;95582.88;;;22.21;44.16
83183;BME280;73077;49.898;16.450;2023-10-19T11:39:05;95592.81;;;22.19;44.12
83183;BME280;73077;49.898;16.450;2023-10-19T11:41:35;95592.00;;;22.18;44.13
83183;BME280;73077;49.898;16.450;2023-10-19T11:44:01;95598.78;;;22.14;44.32
83183;BME280;73077;49.898;16.450;2023-10-19T11:46:28;95594.38;;;22.08;44.18
83183;BME280;73077;49.898;16.450;2023-10-19T11:48:55;95596.34;;;22.13;44.14
83183;BME280;73077;49.898;16.450;2023-10-19T11:51:22;95595.09;;;22.15;44.23
83183;BME280;73077;49.898;16.450;2023-10-19T11:53:48;95586.22;;;22.28;43.96
83183;BME280;73077;49.898;16.450;2023-10-19T11:56:16;95582.59;;;22.41;43.95
83183;BME280;73077;49.898;16.450;2023-10-19T11:59:16;95570.75;;;22.61;43.54
83183;BME280;73077;49.898;16.450;2023-10-19T12:01:42;95564.97;;;22.71;43.13
83183;BME280;73077;49.898;16.450;2023-10-19T12:04:09;95560.38;;;22.78;43.11
83183;BME280;73077;49.898;16.450;2023-10-19T12:06:39;95548.81;;;22.79;43.04
83183;BME280;73077;49.898;16.450;2023-10-19T12:09:09;95550.06;;;22.76;43.14
83183;BME280;73077;49.898;16.450;2023-10-19T12:11:41;95553.97;;;22.74;43.35
83183;BME280;73077;49.898;16.450;2023-10-19T12:14:25;95558.06;;;22.70;43.14
83183;BME280;73077;49.898;16.450;2023-10-19T12:16:52;95555.91;;;22.67;43.40
83183;BME280;73077;49.898;16.450;2023-10-19T12:19:21;95531.63;;;22.65;43.65
83183;BME280;73077;49.898;16.450;2023-10-19T12:21:50;95529.63;;;22.60;43.45
83183;BME280;73077;49.898;16.450;2023-10-19T12:24:17;95521.72;;;22.60;43.60
83183;BME280;73077;49.898;16.450;2023-10-19T12:26:49;95518.50;;;22.58;43.67
83183;BME280;73077;49.898;16.450;2023-10-19T12:29:16;95531.56;;;22.53;43.78
83183;BME280;73077;49.898;16.450;2023-10-19T12:31:47;95518.28;;;22.48;43.85
83183;BME280;73077;49.898;16.450;2023-10-19T12:34:13;95519.53;;;22.46;43.90
83183;BME280;73077;49.898;16.450;2023-10-19T12:36:39;95522.63;;;22.43;44.00
83183;BME280;73077;49.898;16.450;2023-10-19T12:39:07;95518.59;;;22.40;43.83
83183;BME280;73077;49.898;16.450;2023-10-19T12:41:34;95531.78;;;22.40;43.82
83183;BME280;73077;49.898;16.450;2023-10-19T12:44:11;95531.41;;;22.37;44.07
83183;BME280;73077;49.898;16.450;2023-10-19T12:46:46;95529.69;;;22.31;43.96
83183;BME280;73077;49.898;16.450;2023-10-19T12:49:14;95525.44;;;22.30;44.30
83183;BME280;73077;49.898;16.450;2023-10-19T12:51:44;95529.09;;;22.29;44.11
83183;BME280;73077;49.898;16.450;2023-10-19T12:54:11;95527.94;;;22.24;44.30
83183;BME280;73077;49.898;16.450;2023-10-19T12:56:39;95539.50;;;22.23;44.10
83183;BME280;73077;49.898;16.450;2023-10-19T12:59:10;95540.16;;;22.19;44.44
83183;BME280;73077;49.898;16.450;2023-10-19T13:01:41;95528.72;;;22.13;44.30
83183;BME280;73077;49.898;16.450;2023-10-19T13:06:51;95517.81;;;22.10;44.50
83183;BME280;73077;49.898;16.450;2023-10-19T13:09:27;95518.84;;;22.09;44.41
83183;BME280;73077;49.898;16.450;2023-10-19T13:12:09;95519.50;;;22.04;44.47
83183;BME280;73077;49.898;16.450;2023-10-19T13:14:36;95510.00;;;22.03;44.66
83183;BME280;73077;49.898;16.450;2023-10-19T13:17:02;95501.09;;;22.04;44.52
83183;BME280;73077;49.898;16.450;2023-10-19T13:19:30;95496.28;;;22.01;44.41
83183;BME280;73077;49.898;16.450;2023-10-19T13:21:58;95496.50;;;22.00;44.41